Time;durP1;ratioP1;P1;durP2;ratioP2;P2;SDS_P1;SDS_P2;PMS_P1;PMS_P2;Temp;Humidity;BMP_temperature;BMP_pressure;BME280_temperature;BME280_humidity;BME280_pressure;Samples;Min_cycle;Max_cycle;Signal;HPM_P1;HPM_P2
2021/09/02 00:01:46;;;;;;;61.28;31.30;;;;;;;;;;4993011;28;20023;-49
2021/09/02 00:04:12;;;;;;;55.25;27.38;;;;;;;;;;4992881;28;20041;-48
2021/09/02 00:06:38;;;;;;;47.50;25.23;;;;;;;;;;4993010;28;20122;-47
2021/09/02 00:09:04;;;;;;;51.00;25.88;;;;;;;;;;4992552;28;20030;-50
2021/09/02 00:11:30;;;;;;;45.00;26.98;;;;;;;;;;4992967;28;20111;-48
2021/09/02 00:13:56;;;;;;;44.47;26.35;;;;;;;;;;4992828;28;20030;-48
2021/09/02 00:16:22;;;;;;;64.35;35.85;;;;;;;;;;4992756;28;20486;-48
2021/09/02 00:18:48;;;;;;;80.80;43.05;;;;;;;;;;4992733;28;20034;-48
2021/09/02 00:21:14;;;;;;;46.33;25.38;;;;;;;;;;4992795;28;20099;-48
2021/09/02 00:23:40;;;;;;;61.35;30.95;;;;;;;;;;4992742;28;20474;-48
2021/09/02 00:26:07;;;;;;;57.75;29.52;;;;;;;;;;4992892;28;20623;-50
2021/09/02 00:28:33;;;;;;;26.75;16.02;;;;;;;;;;4992548;28;20097;-49
2021/09/02 00:30:59;;;;;;;49.60;24.95;;;;;;;;;;4992558;28;20026;-47
2021/09/02 00:33:25;;;;;;;30.75;17.30;;;;;;;;;;4992594;28;20435;-48
2021/09/02 00:35:51;;;;;;;21.50;11.40;;;;;;;;;;4992777;28;20408;-48
2021/09/02 00:38:17;;;;;;;29.02;16.25;;;;;;;;;;4992473;28;20031;-48
2021/09/02 00:40:45;;;;;;;54.10;22.48;;;;;;;;;;4992623;28;20037;-48
2021/09/02 00:43:11;;;;;;;60.60;34.13;;;;;;;;;;4992543;28;20425;-47
2021/09/02 00:45:37;;;;;;;38.70;19.00;;;;;;;;;;4992551;28;20018;-47
2021/09/02 00:48:04;;;;;;;51.80;28.17;;;;;;;;;;4993942;28;20446;-48
2021/09/02 00:50:30;;;;;;;20.98;11.48;;;;;;;;;;4996303;28;20019;-49
2021/09/02 00:53:00;;;;;;;56.30;28.60;;;;;;;;;;4996238;28;20030;-50
2021/09/02 00:55:29;;;;;;;76.60;42.08;;;;;;;;;;4996266;28;20026;-49
2021/09/02 00:57:55;;;;;;;42.28;24.02;;;;;;;;;;4996536;28;20030;-49
2021/09/02 01:00:23;;;;;;;37.53;20.02;;;;;;;;;;4995853;28;20108;-48
2021/09/02 01:02:49;;;;;;;24.48;12.20;;;;;;;;;;4996000;28;20062;-47
2021/09/02 01:05:17;;;;;;;23.75;14.20;;;;;;;;;;4995931;28;20018;-49
2021/09/02 01:07:43;;;;;;;25.55;14.13;;;;;;;;;;4996141;28;20033;-49
2021/09/02 01:10:10;;;;;;;36.45;19.58;;;;;;;;;;4995719;28;20070;-48
2021/09/02 01:12:38;;;;;;;29.00;16.33;;;;;;;;;;4995924;28;20483;-48
2021/09/02 01:15:08;;;;;;;28.98;14.60;;;;;;;;;;4995738;28;20386;-50
2021/09/02 01:17:35;;;;;;;26.27;14.67;;;;;;;;;;4995970;28;20026;-49
2021/09/02 01:20:02;;;;;;;17.13;9.55;;;;;;;;;;4995658;28;20042;-48
2021/09/02 01:22:29;;;;;;;14.70;8.98;;;;;;;;;;4995678;28;20327;-48
2021/09/02 01:25:07;;;;;;;21.70;11.77;;;;;;;;;;4995520;28;20114;-49
2021/09/02 01:27:33;;;;;;;13.05;6.60;;;;;;;;;;4995329;28;20018;-48
2021/09/02 01:30:00;;;;;;;15.18;8.95;;;;;;;;;;4995513;28;20535;-47
2021/09/02 01:32:38;;;;;;;15.32;8.45;;;;;;;;;;4995593;28;20026;-48
2021/09/02 01:35:05;;;;;;;10.80;6.45;;;;;;;;;;4995622;28;20105;-48
2021/09/02 01:37:42;;;;;;;17.23;9.85;;;;;;;;;;4995502;28;20121;-48
2021/09/02 01:40:09;;;;;;;17.90;8.77;;;;;;;;;;4995193;28;20039;-49
2021/09/02 01:42:36;;;;;;;14.93;9.02;;;;;;;;;;4995425;28;20027;-49
2021/09/02 01:45:02;;;;;;;17.42;8.35;;;;;;;;;;4995386;28;20041;-49
2021/09/02 01:47:28;;;;;;;9.27;6.05;;;;;;;;;;4995339;28;20113;-49
2021/09/02 01:49:55;;;;;;;17.33;9.23;;;;;;;;;;4995302;28;20351;-49
2021/09/02 01:52:21;;;;;;;15.55;6.90;;;;;;;;;;4995632;28;20038;-48
2021/09/02 01:54:48;;;;;;;18.33;9.15;;;;;;;;;;4995766;28;20157;-50
2021/09/02 01:57:17;;;;;;;15.90;7.75;;;;;;;;;;4995385;28;20141;-48
2021/09/02 01:59:43;;;;;;;15.05;7.18;;;;;;;;;;4995519;28;20368;-48
2021/09/02 02:02:09;;;;;;;15.10;7.78;;;;;;;;;;4994885;28;20489;-49
2021/09/02 02:04:38;;;;;;;13.55;8.70;;;;;;;;;;4994945;28;20030;-49
2021/09/02 02:07:04;;;;;;;13.15;7.47;;;;;;;;;;4995317;28;20050;-49
2021/09/02 02:09:30;;;;;;;14.02;8.20;;;;;;;;;;4994998;28;20065;-49
2021/09/02 02:11:56;;;;;;;10.93;6.40;;;;;;;;;;4995073;28;20081;-48
2021/09/02 02:14:22;;;;;;;14.00;7.95;;;;;;;;;;4995083;28;20022;-49
2021/09/02 02:16:48;;;;;;;14.35;7.53;;;;;;;;;;4994560;28;20213;-49
2021/09/02 02:19:16;;;;;;;10.63;6.43;;;;;;;;;;4994485;28;20050;-48
2021/09/02 02:21:42;;;;;;;9.80;5.60;;;;;;;;;;4994511;28;20026;-48
2021/09/02 02:24:08;;;;;;;10.52;6.00;;;;;;;;;;4994327;28;20395;-48
2021/09/02 02:26:34;;;;;;;8.38;5.90;;;;;;;;;;4993491;28;20022;-48
2021/09/02 02:29:00;;;;;;;9.60;6.28;;;;;;;;;;4994397;28;20089;-49
2021/09/02 02:31:26;;;;;;;9.50;5.57;;;;;;;;;;4994202;28;20069;-48
2021/09/02 02:33:52;;;;;;;8.55;5.55;;;;;;;;;;4994315;28;20031;-48
2021/09/02 02:36:18;;;;;;;8.73;5.43;;;;;;;;;;4994826;28;20471;-51
2021/09/02 02:38:44;;;;;;;14.40;7.43;;;;;;;;;;4994760;28;20035;-50
2021/09/02 02:41:10;;;;;;;11.18;5.68;;;;;;;;;;4994736;28;20105;-50
2021/09/02 02:43:38;;;;;;;7.47;5.00;;;;;;;;;;4994250;28;20386;-48
2021/09/02 02:46:04;;;;;;;8.10;5.32;;;;;;;;;;4994164;28;20062;-49
2021/09/02 02:48:30;;;;;;;11.68;5.93;;;;;;;;;;4994744;28;20395;-49
2021/09/02 02:50:56;;;;;;;14.77;5.70;;;;;;;;;;4994095;28;20096;-49
2021/09/02 02:53:22;;;;;;;10.52;6.18;;;;;;;;;;4993883;28;20026;-47
2021/09/02 02:55:48;;;;;;;9.45;6.22;;;;;;;;;;4994164;28;20022;-49
2021/09/02 02:58:14;;;;;;;7.97;5.78;;;;;;;;;;4994147;28;20389;-48
2021/09/02 03:00:40;;;;;;;9.25;4.93;;;;;;;;;;4993789;28;20436;-50
2021/09/02 03:03:06;;;;;;;9.90;5.13;;;;;;;;;;4993755;28;20033;-50
2021/09/02 03:05:32;;;;;;;11.80;5.40;;;;;;;;;;4993590;28;20034;-48
2021/09/02 03:07:59;;;;;;;11.85;7.35;;;;;;;;;;4993623;28;20027;-49
2021/09/02 03:10:25;;;;;;;8.52;5.40;;;;;;;;;;4993125;28;20039;-51
2021/09/02 03:12:51;;;;;;;11.20;5.78;;;;;;;;;;4994512;28;20061;-52
2021/09/02 03:15:17;;;;;;;8.23;4.68;;;;;;;;;;4993532;28;20034;-51
2021/09/02 03:17:43;;;;;;;11.60;6.13;;;;;;;;;;4993572;28;20037;-53
2021/09/02 03:20:09;;;;;;;9.82;6.22;;;;;;;;;;4993411;28;20033;-52
2021/09/02 03:22:35;;;;;;;10.05;5.22;;;;;;;;;;4993466;28;20026;-53
2021/09/02 03:25:01;;;;;;;10.52;5.13;;;;;;;;;;4993575;28;20036;-53
2021/09/02 03:27:27;;;;;;;8.65;5.10;;;;;;;;;;4993948;28;20034;-52
2021/09/02 03:29:53;;;;;;;7.43;4.75;;;;;;;;;;4993597;28;20384;-49
2021/09/02 03:32:19;;;;;;;7.03;5.10;;;;;;;;;;4993621;28;20023;-48
2021/09/02 03:34:46;;;;;;;13.88;6.72;;;;;;;;;;4994192;28;20045;-49
2021/09/02 03:37:12;;;;;;;10.68;6.95;;;;;;;;;;4993264;28;20046;-49
2021/09/02 03:39:38;;;;;;;14.77;7.32;;;;;;;;;;4993794;28;20030;-50
2021/09/02 03:42:04;;;;;;;14.38;9.20;;;;;;;;;;4993773;28;20061;-48
2021/09/02 03:44:30;;;;;;;14.75;8.27;;;;;;;;;;4993281;28;20033;-48
2021/09/02 03:46:56;;;;;;;16.73;7.13;;;;;;;;;;4993126;28;20045;-48
2021/09/02 03:49:22;;;;;;;11.20;6.50;;;;;;;;;;4993866;28;20026;-48
2021/09/02 03:51:48;;;;;;;9.55;6.28;;;;;;;;;;4993112;28;20026;-47
2021/09/02 03:54:14;;;;;;;9.05;5.35;;;;;;;;;;4993040;28;20467;-49
2021/09/02 03:56:40;;;;;;;12.73;5.82;;;;;;;;;;4993003;28;20022;-48
2021/09/02 03:59:06;;;;;;;8.88;5.60;;;;;;;;;;4992854;28;20038;-49
2021/09/02 04:01:32;;;;;;;10.15;6.10;;;;;;;;;;4993022;28;20026;-47
2021/09/02 04:03:59;;;;;;;10.63;5.80;;;;;;;;;;4992783;28;20034;-50
2021/09/02 04:06:25;;;;;;;10.80;6.00;;;;;;;;;;4993247;28;20023;-53
2021/09/02 04:08:51;;;;;;;23.35;12.45;;;;;;;;;;4993539;28;20056;-54
2021/09/02 04:11:18;;;;;;;25.02;13.43;;;;;;;;;;4993113;28;20054;-53
2021/09/02 04:13:46;;;;;;;35.95;19.63;;;;;;;;;;4992727;28;20093;-48
2021/09/02 04:16:12;;;;;;;16.73;10.85;;;;;;;;;;4992708;28;20029;-49
2021/09/02 04:18:38;;;;;;;18.00;10.75;;;;;;;;;;4991489;28;20030;-48
2021/09/02 04:21:04;;;;;;;16.90;8.98;;;;;;;;;;4993263;28;20027;-48
2021/09/02 04:23:32;;;;;;;8.82;5.43;;;;;;;;;;4995807;28;20109;-48
2021/09/02 04:25:58;;;;;;;10.35;6.22;;;;;;;;;;4997009;28;20026;-48
2021/09/02 04:28:24;;;;;;;11.15;5.80;;;;;;;;;;4996415;28;20109;-48
2021/09/02 04:30:50;;;;;;;9.45;5.95;;;;;;;;;;4996506;28;20022;-50
2021/09/02 04:33:16;;;;;;;9.80;5.50;;;;;;;;;;4996646;28;20050;-47
2021/09/02 04:35:42;;;;;;;11.60;5.40;;;;;;;;;;4996346;28;20023;-48
2021/09/02 04:38:09;;;;;;;13.85;6.07;;;;;;;;;;4996365;28;20347;-48
2021/09/02 04:40:35;;;;;;;14.30;6.00;;;;;;;;;;4996338;28;20391;-48
2021/09/02 04:43:01;;;;;;;11.10;6.85;;;;;;;;;;4996225;28;20026;-50
2021/09/02 04:45:27;;;;;;;12.60;6.10;;;;;;;;;;4996286;28;20030;-51
2021/09/02 04:47:53;;;;;;;13.35;6.20;;;;;;;;;;4996283;28;20152;-49
2021/09/02 04:50:19;;;;;;;9.63;5.63;;;;;;;;;;4994863;28;20039;-51
2021/09/02 04:52:46;;;;;;;12.57;5.47;;;;;;;;;;4996199;28;20022;-52
2021/09/02 04:55:13;;;;;;;13.68;7.38;;;;;;;;;;4996193;28;20031;-53
2021/09/02 04:57:39;;;;;;;7.78;5.10;;;;;;;;;;4996050;28;20027;-51
2021/09/02 05:00:06;;;;;;;14.68;8.15;;;;;;;;;;4996901;28;20061;-52
2021/09/02 05:02:35;;;;;;;11.32;7.13;;;;;;;;;;4996031;28;20069;-50
2021/09/02 05:05:01;;;;;;;16.90;8.52;;;;;;;;;;4995867;28;20030;-49
2021/09/02 05:07:27;;;;;;;19.35;10.70;;;;;;;;;;4995993;28;20026;-50
2021/09/02 05:09:53;;;;;;;23.15;11.32;;;;;;;;;;4995663;28;20054;-52
2021/09/02 05:12:19;;;;;;;45.25;10.43;;;;;;;;;;4996429;28;20129;-49
2021/09/02 05:14:46;;;;;;;24.80;10.48;;;;;;;;;;4995981;28;20027;-51
2021/09/02 05:17:13;;;;;;;14.57;8.40;;;;;;;;;;4996117;28;20026;-51
2021/09/02 05:19:39;;;;;;;13.07;5.97;;;;;;;;;;4995898;28;20038;-49
2021/09/02 05:22:05;;;;;;;16.27;6.63;;;;;;;;;;4995646;28;20074;-52
2021/09/02 05:24:31;;;;;;;11.45;6.22;;;;;;;;;;4995104;28;20125;-51
2021/09/02 05:26:57;;;;;;;15.40;7.30;;;;;;;;;;4995784;28;20027;-52
2021/09/02 05:29:23;;;;;;;9.23;5.75;;;;;;;;;;4995728;28;20022;-53
2021/09/02 05:31:49;;;;;;;10.77;6.40;;;;;;;;;;4995373;28;20089;-53
2021/09/02 05:34:15;;;;;;;10.65;5.85;;;;;;;;;;4994947;28;20085;-50
2021/09/02 05:36:41;;;;;;;12.73;6.72;;;;;;;;;;4995297;28;20026;-50
2021/09/02 05:39:07;;;;;;;9.73;5.35;;;;;;;;;;4995859;28;20387;-51
2021/09/02 05:41:34;;;;;;;8.70;5.60;;;;;;;;;;4995525;28;20049;-49
2021/09/02 05:44:00;;;;;;;9.15;6.05;;;;;;;;;;4995088;28;20105;-51
2021/09/02 05:46:26;;;;;;;7.93;4.85;;;;;;;;;;4995286;28;20049;-50
2021/09/02 05:48:52;;;;;;;11.18;5.75;;;;;;;;;;4995153;28;20526;-50
2021/09/02 05:51:18;;;;;;;10.05;5.47;;;;;;;;;;4995165;28;20031;-51
2021/09/02 05:53:44;;;;;;;14.23;5.78;;;;;;;;;;4995124;28;20025;-51
2021/09/02 05:56:10;;;;;;;14.45;5.45;;;;;;;;;;4995645;28;20104;-50
2021/09/02 05:58:36;;;;;;;7.93;5.47;;;;;;;;;;4994942;28;20057;-51
2021/09/02 06:01:02;;;;;;;8.80;5.50;;;;;;;;;;4994881;28;20496;-51
2021/09/02 06:03:28;;;;;;;9.45;5.10;;;;;;;;;;4994825;28;20113;-50
2021/09/02 06:05:54;;;;;;;7.95;4.93;;;;;;;;;;4994929;28;20026;-51
2021/09/02 06:08:21;;;;;;;15.15;10.63;;;;;;;;;;4994826;28;20076;-51
2021/09/02 06:10:47;;;;;;;6.88;4.85;;;;;;;;;;4994557;28;20134;-51
2021/09/02 06:13:13;;;;;;;9.77;4.78;;;;;;;;;;4994633;28;20359;-51
2021/09/02 06:15:39;;;;;;;10.23;4.72;;;;;;;;;;4994661;28;20029;-51
2021/09/02 06:18:07;;;;;;;6.53;4.20;;;;;;;;;;4994459;28;20149;-51
2021/09/02 06:20:33;;;;;;;8.98;4.72;;;;;;;;;;4994744;28;20062;-51
2021/09/02 06:22:59;;;;;;;5.28;4.30;;;;;;;;;;4995288;28;20019;-51
2021/09/02 06:25:25;;;;;;;6.20;4.15;;;;;;;;;;4995151;28;20390;-51
2021/09/02 06:27:51;;;;;;;8.00;5.80;;;;;;;;;;4995154;28;20045;-52
2021/09/02 06:30:17;;;;;;;7.50;4.72;;;;;;;;;;4995245;28;20422;-50
2021/09/02 06:32:46;;;;;;;5.72;4.88;;;;;;;;;;4995254;28;20057;-51
2021/09/02 06:35:12;;;;;;;7.47;5.78;;;;;;;;;;4995014;28;20034;-51
2021/09/02 06:37:38;;;;;;;21.42;13.43;;;;;;;;;;4994949;28;20072;-52
2021/09/02 06:40:04;;;;;;;14.57;8.68;;;;;;;;;;4994691;28;20045;-52
2021/09/02 06:42:30;;;;;;;11.40;7.35;;;;;;;;;;4994948;28;20486;-53
2021/09/02 06:44:58;;;;;;;18.45;9.73;;;;;;;;;;4994134;28;20058;-53
2021/09/02 06:47:25;;;;;;;24.95;14.85;;;;;;;;;;4994771;28;20014;-52
2021/09/02 06:49:51;;;;;;;16.00;9.35;;;;;;;;;;4994889;28;20026;-51
2021/09/02 06:52:17;;;;;;;7.40;5.45;;;;;;;;;;4994840;28;20022;-50
2021/09/02 06:54:45;;;;;;;13.52;8.27;;;;;;;;;;4994896;28;20065;-53
2021/09/02 06:57:11;;;;;;;25.38;12.10;;;;;;;;;;4994609;28;20058;-52
2021/09/02 06:59:37;;;;;;;54.67;30.50;;;;;;;;;;4994415;28;20038;-50
2021/09/02 07:02:03;;;;;;;23.95;9.10;;;;;;;;;;4994439;28;20032;-51
2021/09/02 07:04:29;;;;;;;48.10;23.02;;;;;;;;;;4994488;28;20378;-51
2021/09/02 07:06:55;;;;;;;45.92;23.02;;;;;;;;;;4994409;28;20030;-51
2021/09/02 07:09:22;;;;;;;22.98;10.73;;;;;;;;;;4994451;28;20060;-52
2021/09/02 07:11:48;;;;;;;19.75;10.25;;;;;;;;;;4994636;28;20023;-52
2021/09/02 07:14:14;;;;;;;73.68;37.25;;;;;;;;;;4994385;28;20054;-51
2021/09/02 07:16:40;;;;;;;8.80;5.57;;;;;;;;;;4994453;28;20022;-48
2021/09/02 07:19:06;;;;;;;8.88;5.85;;;;;;;;;;4994162;28;20034;-49
2021/09/02 07:21:32;;;;;;;22.70;12.55;;;;;;;;;;4994076;28;20033;-51
2021/09/02 07:24:02;;;;;;;56.33;34.95;;;;;;;;;;4994334;28;20030;-54
2021/09/02 07:26:29;;;;;;;50.20;30.88;;;;;;;;;;4994301;28;20014;-49
2021/09/02 07:28:55;;;;;;;38.75;24.10;;;;;;;;;;4994284;28;20031;-46
2021/09/02 07:31:21;;;;;;;27.95;16.77;;;;;;;;;;4994170;28;20026;-48
2021/09/02 07:33:47;;;;;;;40.05;22.85;;;;;;;;;;4992912;28;20109;-51
2021/09/02 07:36:16;;;;;;;198.93;116.82;;;;;;;;;;4992860;28;20093;-49
2021/09/02 07:38:42;;;;;;;176.82;100.10;;;;;;;;;;4994063;28;20113;-48
2021/09/02 07:41:08;;;;;;;81.35;48.28;;;;;;;;;;4994155;28;20038;-49
2021/09/02 07:43:37;;;;;;;32.83;17.27;;;;;;;;;;4993944;28;20089;-48
2021/09/02 07:46:05;;;;;;;221.25;145.35;;;;;;;;;;4994009;28;20036;-46
2021/09/02 07:48:31;;;;;;;114.68;71.22;;;;;;;;;;4993965;28;20066;-54
2021/09/02 07:50:57;;;;;;;184.68;113.38;;;;;;;;;;4993879;28;20026;-49
2021/09/02 07:53:23;;;;;;;89.82;53.30;;;;;;;;;;4993862;28;20446;-48
2021/09/02 07:55:49;;;;;;;29.08;17.88;;;;;;;;;;4993880;28;20097;-56
2021/09/02 07:58:16;;;;;;;66.00;30.35;;;;;;;;;;4993697;28;20022;-49
2021/09/02 08:00:42;;;;;;;50.63;22.20;;;;;;;;;;4993781;28;20475;-52
2021/09/02 08:03:08;;;;;;;169.10;82.40;;;;;;;;;;4994206;28;20033;-48
2021/09/02 08:05:34;;;;;;;117.93;57.00;;;;;;;;;;4993911;28;20036;-49
2021/09/02 08:08:00;;;;;;;115.00;58.35;;;;;;;;;;4994020;28;20430;-53
2021/09/02 08:10:26;;;;;;;109.03;58.25;;;;;;;;;;4994039;28;20565;-56
2021/09/02 08:12:53;;;;;;;17.42;9.20;;;;;;;;;;4993824;28;20046;-54
2021/09/02 08:15:19;;;;;;;40.58;22.17;;;;;;;;;;4993779;28;20537;-51
2021/09/02 08:17:45;;;;;;;70.57;32.15;;;;;;;;;;4993693;28;20026;-50
2021/09/02 08:20:12;;;;;;;139.73;78.68;;;;;;;;;;4993721;28;20172;-55
2021/09/02 08:22:42;;;;;;;302.83;199.32;;;;;;;;;;4993544;28;20030;-48
2021/09/02 08:25:09;;;;;;;108.72;69.43;;;;;;;;;;4993603;28;20029;-55
2021/09/02 08:27:35;;;;;;;143.70;62.35;;;;;;;;;;4993551;28;20026;-50
2021/09/02 08:30:04;;;;;;;84.45;50.97;;;;;;;;;;4993698;28;20034;-53
2021/09/02 08:32:30;;;;;;;155.27;88.38;;;;;;;;;;4993490;28;20058;-50
2021/09/02 08:34:56;;;;;;;52.67;28.58;;;;;;;;;;4993534;28;20109;-53
2021/09/02 08:37:22;;;;;;;45.70;28.77;;;;;;;;;;4993619;28;20394;-50
2021/09/02 08:39:48;;;;;;;129.15;93.20;;;;;;;;;;4993824;28;20041;-49
2021/09/02 08:42:17;;;;;;;14.93;9.07;;;;;;;;;;4993526;28;20038;-50
2021/09/02 08:44:44;;;;;;;31.65;17.52;;;;;;;;;;4993458;28;20054;-49
2021/09/02 08:47:10;;;;;;;72.85;38.10;;;;;;;;;;4993390;28;20097;-52
2021/09/02 08:49:37;;;;;;;11.88;6.95;;;;;;;;;;4993511;28;20027;-53
2021/09/02 08:52:06;;;;;;;105.30;59.70;;;;;;;;;;4992099;28;20394;-55
2021/09/02 08:54:32;;;;;;;34.03;23.95;;;;;;;;;;4992142;28;20395;-52
2021/09/02 08:56:59;;;;;;;33.70;21.58;;;;;;;;;;4993234;28;20033;-53
2021/09/02 08:59:25;;;;;;;107.43;58.58;;;;;;;;;;4993334;28;20039;-54
2021/09/02 09:01:51;;;;;;;111.10;67.57;;;;;;;;;;4993384;28;20046;-47
2021/09/02 09:04:18;;;;;;;11.35;6.75;;;;;;;;;;4993350;28;20101;-50
2021/09/02 09:06:44;;;;;;;11.32;5.45;;;;;;;;;;4993381;28;20046;-47
2021/09/02 09:09:15;;;;;;;161.77;79.50;;;;;;;;;;4994755;28;20046;-49
2021/09/02 09:11:48;;;;;;;39.28;25.70;;;;;;;;;;4997328;28;20027;-48
2021/09/02 09:14:17;;;;;;;16.88;9.30;;;;;;;;;;4996825;28;20142;-49
2021/09/02 09:16:43;;;;;;;16.05;9.30;;;;;;;;;;4996692;28;20026;-46
2021/09/02 09:19:09;;;;;;;13.63;9.00;;;;;;;;;;4996579;28;20037;-50
2021/09/02 09:21:35;;;;;;;3.88;3.00;;;;;;;;;;4996532;28;20030;-54
2021/09/02 09:24:07;;;;;;;6.50;4.53;;;;;;;;;;4996598;28;20029;-54
2021/09/02 09:26:34;;;;;;;8.90;5.72;;;;;;;;;;4996431;28;20493;-50
2021/09/02 09:29:01;;;;;;;116.90;79.38;;;;;;;;;;4996485;28;20033;-48
2021/09/02 09:31:37;;;;;;;24.17;14.05;;;;;;;;;;4996357;28;20037;-49
2021/09/02 09:34:10;;;;;;;7.30;4.65;;;;;;;;;;4996390;28;20478;-52
2021/09/02 09:36:37;;;;;;;173.13;96.05;;;;;;;;;;4996314;28;20044;-49
2021/09/02 09:39:03;;;;;;;107.45;70.47;;;;;;;;;;4996158;28;20042;-45
2021/09/02 09:41:45;;;;;;;19.20;12.25;;;;;;;;;;4996418;28;20391;-57
2021/09/02 09:44:21;;;;;;;11.20;7.78;;;;;;;;;;4996313;28;20022;-54
2021/09/02 09:47:02;;;;;;;29.13;16.30;;;;;;;;;;4996153;28;20023;-54
2021/09/02 09:49:42;;;;;;;12.95;4.95;;;;;;;;;;4995980;28;20379;-53
2021/09/02 09:52:16;;;;;;;14.60;7.53;;;;;;;;;;4996131;28;20382;-57
2021/09/02 09:54:45;;;;;;;22.52;12.13;;;;;;;;;;4996040;28;20724;-52
2021/09/02 09:57:12;;;;;;;5.63;3.60;;;;;;;;;;4995991;28;20030;-54
2021/09/02 09:59:41;;;;;;;6.20;3.17;;;;;;;;;;4995797;28;20438;-51
2021/09/02 10:02:07;;;;;;;5.90;3.22;;;;;;;;;;4995705;28;20019;-54
2021/09/02 10:04:34;;;;;;;9.02;5.82;;;;;;;;;;4994395;28;20431;-54
2021/09/02 10:07:02;;;;;;;7.38;4.68;;;;;;;;;;4995664;28;20427;-52
2021/09/02 10:09:28;;;;;;;6.05;4.38;;;;;;;;;;4995500;28;20418;-46
2021/09/02 10:11:55;;;;;;;8.88;4.32;;;;;;;;;;4995729;28;20077;-50
2021/09/02 10:14:21;;;;;;;18.77;6.32;;;;;;;;;;4995644;28;20029;-50
2021/09/02 10:16:47;;;;;;;37.85;18.67;;;;;;;;;;4995428;28;20478;-50
2021/09/02 10:19:13;;;;;;;51.65;25.65;;;;;;;;;;4995314;28;20420;-55
2021/09/02 10:21:39;;;;;;;35.22;20.33;;;;;;;;;;4994425;28;20022;-53
2021/09/02 10:24:23;;;;;;;17.02;8.77;;;;;;;;;;4995452;28;20022;-52
2021/09/02 10:26:51;;;;;;;10.27;6.00;;;;;;;;;;4995467;28;20023;-50
2021/09/02 10:29:37;;;;;;;16.42;8.52;;;;;;;;;;4995380;28;20026;-51
2021/09/02 10:32:21;;;;;;;26.40;13.18;;;;;;;;;;4995260;28;20112;-51
2021/09/02 10:34:47;;;;;;;12.35;7.85;;;;;;;;;;4995156;28;20027;-51
2021/09/02 10:37:32;;;;;;;7.03;4.93;;;;;;;;;;4995136;28;20406;-51
2021/09/02 10:39:58;;;;;;;37.78;23.02;;;;;;;;;;4994911;28;20046;-52
2021/09/02 10:42:46;;;;;;;6.45;4.13;;;;;;;;;;4995055;28;20034;-51
2021/09/02 10:45:27;;;;;;;16.55;8.73;;;;;;;;;;4995131;28;20022;-53
2021/09/02 10:47:56;;;;;;;43.80;26.75;;;;;;;;;;4995039;28;20027;-52
2021/09/02 10:50:23;;;;;;;48.53;29.13;;;;;;;;;;4994887;28;20605;-53
2021/09/02 10:52:50;;;;;;;28.05;15.63;;;;;;;;;;4994806;28;20030;-50
2021/09/02 10:55:28;;;;;;;13.55;7.20;;;;;;;;;;4995159;28;20065;-53
2021/09/02 10:57:54;;;;;;;16.58;9.98;;;;;;;;;;4994834;28;20026;-52
2021/09/02 11:00:40;;;;;;;8.05;4.88;;;;;;;;;;4994726;28;20100;-53
2021/09/02 11:03:16;;;;;;;8.10;4.93;;;;;;;;;;4994512;28;20105;-53
2021/09/02 11:05:49;;;;;;;14.15;7.53;;;;;;;;;;4994777;28;20027;-54
2021/09/02 11:08:32;;;;;;;6.80;4.53;;;;;;;;;;4994500;28;20026;-54
2021/09/02 11:11:28;;;;;;;6.78;4.38;;;;;;;;;;4994485;28;20487;-53
2021/09/02 11:13:54;;;;;;;24.70;12.10;;;;;;;;;;4954130;28;20050;-53
2021/09/02 11:16:24;;;;;;;23.00;11.15;;;;;;;;;;4953889;29;20035;-53
2021/09/02 11:18:54;;;;;;;54.83;30.40;;;;;;;;;;4953871;29;20039;-53
2021/09/02 11:21:23;;;;;;;33.58;20.80;;;;;;;;;;4953974;29;20027;-54
2021/09/02 11:23:56;;;;;;;45.83;27.30;;;;;;;;;;4953560;29;20035;-54
2021/09/02 11:26:32;;;;;;;11.82;7.95;;;;;;;;;;4953603;29;20078;-54
2021/09/02 11:28:58;;;;;;;8.55;6.30;;;;;;;;;;4953797;29;20498;-53
2021/09/02 11:31:24;;;;;;;73.38;45.28;;;;;;;;;;4953186;28;20477;-53
2021/09/02 11:33:51;;;;;;;14.65;7.88;;;;;;;;;;4953591;29;20523;-53
2021/09/02 11:36:18;;;;;;;27.65;15.35;;;;;;;;;;4953332;29;20043;-54
2021/09/02 11:38:47;;;;;;;46.22;27.55;;;;;;;;;;4952563;29;20047;-53
2021/09/02 11:41:20;;;;;;;51.42;27.33;;;;;;;;;;4953292;29;20069;-53
2021/09/02 11:43:53;;;;;;;80.30;48.03;;;;;;;;;;4937211;29;20483;-50
2021/09/02 11:46:22;;;;;;;47.15;29.02;;;;;;;;;;4953067;29;20106;-52
2021/09/02 11:48:48;;;;;;;26.23;16.95;;;;;;;;;;4953206;29;20053;-52
2021/09/02 11:51:20;;;;;;;12.00;6.80;;;;;;;;;;4988653;28;20038;-51
2021/09/02 11:53:50;;;;;;;18.17;10.93;;;;;;;;;;4994121;28;20357;-50
2021/09/02 11:56:22;;;;;;;29.80;17.15;;;;;;;;;;4994102;28;20022;-50
2021/09/02 11:58:59;;;;;;;35.47;18.98;;;;;;;;;;4993941;28;20073;-50
2021/09/02 12:01:28;;;;;;;26.88;14.55;;;;;;;;;;4992635;28;20038;-51
2021/09/02 12:03:54;;;;;;;34.03;18.75;;;;;;;;;;4993723;28;20025;-51
2021/09/02 12:06:28;;;;;;;22.85;13.15;;;;;;;;;;4993887;28;20464;-52
2021/09/02 12:08:56;;;;;;;39.58;23.52;;;;;;;;;;4992153;28;20487;-48
2021/09/02 12:11:23;;;;;;;59.53;32.95;;;;;;;;;;4993711;28;20027;-49
2021/09/02 12:13:49;;;;;;;29.25;17.50;;;;;;;;;;4993858;28;20050;-48
2021/09/02 12:16:17;;;;;;;45.85;25.02;;;;;;;;;;4993601;28;20026;-50
2021/09/02 12:18:47;;;;;;;47.78;28.70;;;;;;;;;;4993675;28;20042;-52
2021/09/02 12:21:18;;;;;;;16.25;9.95;;;;;;;;;;4992379;28;20042;-54
2021/09/02 12:23:54;;;;;;;11.55;8.65;;;;;;;;;;4990900;28;20382;-53
2021/09/02 12:26:24;;;;;;;63.03;38.03;;;;;;;;;;4993107;28;20097;-50
2021/09/02 12:28:53;;;;;;;38.88;21.63;;;;;;;;;;4993182;28;20022;-51
2021/09/02 12:31:32;;;;;;;47.45;28.92;;;;;;;;;;4992849;28;20062;-52
2021/09/02 12:34:08;;;;;;;42.90;26.02;;;;;;;;;;4993024;28;20026;-51
2021/09/02 12:36:41;;;;;;;58.88;33.85;;;;;;;;;;4993187;28;20098;-53
2021/09/02 12:39:15;;;;;;;59.60;36.22;;;;;;;;;;4991250;28;20467;-52
2021/09/02 12:41:42;;;;;;;50.88;30.33;;;;;;;;;;4992663;28;20561;-52
2021/09/02 12:44:13;;;;;;;39.85;23.63;;;;;;;;;;4994730;28;20118;-52
2021/09/02 12:46:39;;;;;;;;;;;;;;;;;;4997140;28;20363;-52
2021/09/02 12:49:06;;;;;;;101.65;55.10;;;;;;;;;;4996714;28;19909;-57
2021/09/02 12:51:32;;;;;;;45.08;25.85;;;;;;;;;;4996667;28;20023;-53
2021/09/02 12:53:58;;;;;;;27.77;15.38;;;;;;;;;;4996596;28;20022;-50
2021/09/02 12:56:27;;;;;;;11.65;6.90;;;;;;;;;;4996368;28;20018;-54
2021/09/02 12:58:53;;;;;;;19.55;11.43;;;;;;;;;;4996504;28;20150;-51
2021/09/02 13:01:19;;;;;;;79.82;47.05;;;;;;;;;;4995198;28;20036;-52
2021/09/02 13:03:45;;;;;;;45.60;28.98;;;;;;;;;;4996459;28;20022;-52
2021/09/02 13:06:11;;;;;;;38.08;24.25;;;;;;;;;;4996399;28;20026;-51
2021/09/02 13:08:38;;;;;;;43.63;27.23;;;;;;;;;;4996110;28;20030;-52
2021/09/02 13:11:04;;;;;;;22.58;11.52;;;;;;;;;;4977071;28;20055;-54
2021/09/02 13:13:31;;;;;;;24.38;8.77;;;;;;;;;;4977259;28;20034;-43
2021/09/02 13:15:57;;;;;;;1371.20;421.20;;;;;;;;;;4977286;28;20062;-41
2021/09/02 13:18:23;;;;;;;150.65;69.18;;;;;;;;;;4977194;28;20166;-43
2021/09/02 13:20:49;;;;;;;34.08;20.17;;;;;;;;;;4977033;28;20050;-46
2021/09/02 13:23:17;;;;;;;11.80;5.82;;;;;;;;;;4977118;28;20027;-43
2021/09/02 13:25:45;;;;;;;9.70;5.70;;;;;;;;;;4977039;28;20034;-43
2021/09/02 13:28:11;;;;;;;14.98;5.68;;;;;;;;;;4976880;28;20383;-42
2021/09/02 13:30:37;;;;;;;6.43;3.70;;;;;;;;;;4977025;28;20030;-41
2021/09/02 13:33:03;;;;;;;12.90;7.07;;;;;;;;;;4976924;28;20023;-48
2021/09/02 13:35:29;;;;;;;17.33;6.22;;;;;;;;;;4977003;28;20031;-47
2021/09/02 13:37:55;;;;;;;10.20;4.60;;;;;;;;;;4976533;28;20026;-55
2021/09/02 13:40:22;;;;;;;7.18;4.82;;;;;;;;;;4976703;28;20130;-46
2021/09/02 13:42:52;;;;;;;8.85;4.63;;;;;;;;;;4976752;28;20055;-42
2021/09/02 13:45:18;;;;;;;48.07;31.33;;;;;;;;;;4976790;28;20033;-42
2021/09/02 13:47:47;;;;;;;1999.90;769.33;;;;;;;;;;4976570;28;20139;-40
2021/09/02 13:50:13;;;;;;;443.85;156.25;;;;;;;;;;4976616;28;20032;-40
2021/09/02 13:52:39;;;;;;;286.42;131.93;;;;;;;;;;4976483;28;20018;-41
2021/09/02 13:55:07;;;;;;;32.55;16.65;;;;;;;;;;4976291;28;20061;-43
2021/09/02 13:57:33;;;;;;;33.20;11.02;;;;;;;;;;4986815;28;20448;-42
2021/09/02 13:59:59;;;;;;;21.92;9.05;;;;;;;;;;4994845;28;20039;-42
2021/09/02 14:02:25;;;;;;;71.78;18.98;;;;;;;;;;4994549;28;20037;-42
2021/09/02 14:04:51;;;;;;;38.30;11.13;;;;;;;;;;4993234;28;20069;-42
2021/09/02 14:07:19;;;;;;;62.22;17.15;;;;;;;;;;4994227;28;20367;-42
2021/09/02 14:09:45;;;;;;;37.10;11.13;;;;;;;;;;4994192;28;20181;-42
2021/09/02 14:12:11;;;;;;;11.57;5.97;;;;;;;;;;4994167;28;20029;-41
2021/09/02 14:14:37;;;;;;;13.80;5.90;;;;;;;;;;4993008;28;20034;-42
2021/09/02 14:17:03;;;;;;;16.42;6.63;;;;;;;;;;4994693;28;20031;-42
2021/09/02 14:19:29;;;;;;;12.77;6.30;;;;;;;;;;4994107;28;20033;-41
2021/09/02 14:21:55;;;;;;;17.30;7.82;;;;;;;;;;4994233;28;20049;-42
2021/09/02 14:24:21;;;;;;;16.80;5.50;;;;;;;;;;4993983;28;20097;-42
2021/09/02 14:26:48;;;;;;;17.05;8.13;;;;;;;;;;4994100;28;20022;-41
2021/09/02 14:29:14;;;;;;;135.80;51.42;;;;;;;;;;4994258;28;20025;-45